| Date | Time | Temp. (oF) | Dew Point (oF) | Rel. Hum. (%) | Press. (in.) | Wind Dir. | Wind Speed (mph) | Hourly Rainfall (in.) |
|
|---|---|---|---|---|---|---|---|---|---|
| 1 | 01/08 | 00:00 | 18 | 6 | 59 | 30.31 | WNW | 7 | 0.00 |
| 2 | 01/07 | 23:00 | 18 | 5 | 58 | 30.30 | WNW | 12 | 0.00 |
| 3 | 01/07 | 22:00 | 17 | 5 | 60 | 30.30 | WNW | 2 | 0.00 |
| 4 | 01/07 | 21:00 | 18 | 6 | 59 | 30.28 | WNW | 10 | 0.00 |
| 5 | 01/07 | 20:00 | 18 | 6 | 60 | 30.26 | WNW | 6 | 0.00 |
| 6 | 01/07 | 19:00 | 18 | 6 | 60 | 30.25 | WNW | 4 | 0.00 |
| 7 | 01/07 | 18:00 | 19 | 6 | 58 | 30.25 | WNW | 6 | 0.00 |
| 8 | 01/07 | 17:00 | 20 | 5 | 53 | 30.24 | WNW | 6 | 0.00 |
| 9 | 01/07 | 16:00 | 21 | 7 | 56 | 30.23 | WNW | 6 | 0.00 |
| 10 | 01/07 | 15:00 | 21 | 8 | 58 | 30.23 | WNW | 5 | 0.00 |
| 11 | 01/07 | 14:00 | 21 | 9 | 60 | 30.23 | WNW | 7 | 0.00 |
| 12 | 01/07 | 13:00 | 21 | 11 | 65 | 30.23 | WNW | 7 | 0.00 |
| 13 | 01/07 | 12:00 | 20 | 15 | 82 | 30.28 | WNW | 4 | 0.00 |
| 14 | 01/07 | 11:00 | 18 | 14 | 86 | 30.32 | WNW | 3 | 0.00 |
| 15 | 01/07 | 10:00 | 18 | 16 | 94 | 30.36 | WNW | 3 | 0.01 |
| 16 | 01/07 | 09:00 | 17 | 15 | 95 | 30.35 | WNW | 4 | 0.01 |
| 17 | 01/07 | 08:00 | 19 | 14 | 82 | 30.33 | WNW | 8 | 0.00 |
| 18 | 01/07 | 07:00 | 19 | 8 | 62 | 30.32 | WNW | 4 | 0.00 |
| 19 | 01/07 | 06:00 | 19 | 7 | 59 | 30.31 | WNW | 5 | 0.00 |
| 20 | 01/07 | 05:00 | 19 | 7 | 61 | 30.34 | WNW | 0 | 0.00 |
| 21 | 01/07 | 04:00 | 19 | 7 | 59 | 30.35 | WNW | 3 | 0.00 |
| 22 | 01/07 | 03:00 | 19 | 7 | 60 | 30.36 | WNW | 4 | 0.00 |
| 23 | 01/07 | 02:00 | 19 | 7 | 60 | 30.34 | WNW | 6 | 0.00 |
| 24 | 01/07 | 01:00 | 19 | 7 | 60 | 30.34 | WNW | 5 | 0.00 |